KDTN

Shreveport Downtown Airport

Shreveport, Louisiana, USA
METAR KDTN 210653Z AUTO 28003KT 10SM FEW080 BKN100 23/19 A2998 RMK AO2 SLP150 T02280194
Observed Flight Rules
May-21 @ 06:53 UTC (8 minutes ago) Visual Flight Rules
Wind Visibility Clouds
280° at 3 knots 10 miles
  • Few at 8,000' AGL
  • Broken at 10,000' AGL
Temperatures Readings
Current 23°C / 73°F
Dewpoint 19°C / 66°F
Humidity 78%
Altimeter 29.98" Hg
Pressure 1015 hPa
Elevation 53
METAR KDTN 210653Z AUTO 28003KT 10SM FEW080 BKN100 23/19 A2998 RMK AO2 SLP150 T02280194
Observed Flight Rules
May-21 @ 06:53 UTC
(8 minutes ago)
VFR
Wind Visibility
280° at 3 knots 10 miles
Clouds
  • Few at 8,000' AGL
  • Broken at 10,000' AGL
Temperature Dewpoint
23°C / 73°F 19°C / 66°F
Humidity Altimeter Pressure
78% 29.98" Hg 1015 hPa